Hanamaulu, HI (96715)

2:22 PM HST on September 20, 2014 (GMT -1000)
Lihue | Change Station
CLOSE
Current Station
Personal Weather Station
Location: Lihue, HI
Elevation: 342 ft
Nearby Weather Stations

Elev 342 ft 21.97 °N, 159.40 °W | Updated 23 minutes ago

Scattered Clouds
Scattered Clouds
86.1 °F
Feels Like 98 °F
N
5.4
Wind Variable Wind from East
Gusts 11.0 mph

Today
High -- | Low -- °F
--% Chance of Precip.
Yesterday
High -- | Low -- °F
Precip. -- in
6:25 AM 6:35 PM
Waning Crescent, 9% visible
Pressure 29.91 in
Visibility 10.0 miles
Clouds Few 1800 ft
Scattered Clouds 2600 ft
Heat Index 98 °F
Dew Point 77 °F
Humidity 75%
Rainfall -999.00 in
Snow Depth Not available.
UV 8 out of 12
Pollen Not available.
Air Quality Not available.
Flu Activity Not available.
METAR PHLI 202353Z 08007KT 10SM FEW018 SCT026 31/22 A2991 RMK AO2 SLP126 T03060222 10306 20261 56019

More Conditions Fewer Conditions

Pressure 29.91 in
Visibility 10.0 miles
Clouds Few 1800 ft
Scattered Clouds 2600 ft
Heat Index 98 °F
Dew Point 77 °F
Humidity 75%
Rainfall -999.00 in
Snow Depth Not available.
UV 8 out of 12
Pollen Not available.
Air Quality Not available.
Flu Activity Not available.
METAR PHLI 202353Z 08007KT 10SM FEW018 SCT026 31/22 A2991 RMK AO2 SLP126 T03060222 10306 20261 56019

More Conditions Fewer Conditions

10-Day Weather Forecast

Almanac

Astronomy

Sep. 20, 2014 Rise Set
Actual Time 6:25 AM HST 6:35 PM HST
Civil Twilight 6:03 AM HST 6:57 PM HST
Nautical Twilight 5:37 AM HST 7:23 PM HST
Astronomical Twilight 5:11 AM HST 7:49 PM HST
Moon 3:33 AM HST (9/20) 4:30 PM HST (9/20)
Length of Visible Light 12h 54m
Length of Day
12h 09m
Tomorrow will be 1m 15s shorter.
Waning Crescent, 9% of the Moon is Illuminated
Today
Waning Crescent
Sep 24
New
Oct 1
First Quarter
Oct 8
Full
Oct 15
Last Quarter

Today's Extremes

State Highs State Lows

Community

WunderPhotos

Upload Photos

1,755,000 photos uploaded!

WunderBlogs® & News

Nearby

Snow Depth

Station Depth Elevation
No new snow has been reported.

Earthquake Activity

City Distance Mag. Time & Date
No recent earthquake activity has been reported nearby.
Minimum magnitude displayed is 2.5.

Coastal Water Temperatures

Place Temperature
No Stations Reporting

Nearby Weather Stations